createdAt,value
2019-02-16T00:00:27.230Z,8.63
2019-02-16T00:01:27.221Z,8.63
2019-02-16T00:02:27.228Z,8.53
2019-02-16T00:03:27.202Z,8.64
2019-02-16T00:04:27.204Z,8.53
2019-02-16T00:05:27.174Z,8.51
2019-02-16T00:06:27.156Z,8.56
2019-02-16T00:07:27.153Z,8.53
2019-02-16T00:08:27.143Z,8.55
2019-02-16T00:09:27.161Z,8.53
2019-02-16T00:10:27.120Z,8.56
2019-02-16T00:11:27.117Z,8.56
2019-02-16T00:12:27.095Z,8.55
2019-02-16T00:13:27.086Z,8.53
2019-02-16T00:14:27.104Z,8.52
2019-02-16T00:15:27.068Z,8.48
2019-02-16T00:16:27.063Z,8.44
2019-02-16T00:17:27.040Z,8.51
2019-02-16T00:18:27.032Z,8.44
2019-02-16T00:19:27.051Z,8.44
2019-02-16T00:20:27.015Z,8.45
2019-02-16T00:21:27.010Z,8.44
2019-02-16T00:22:26.996Z,8.38
2019-02-16T00:23:26.985Z,8.37
2019-02-16T00:24:27.012Z,8.34
2019-02-16T00:25:26.955Z,8.26
2019-02-16T00:26:26.946Z,8.36
2019-02-16T00:27:26.937Z,8.27
2019-02-16T00:28:26.931Z,8.30
2019-02-16T00:29:26.946Z,8.37
2019-02-16T00:30:26.933Z,8.27
2019-02-16T00:31:26.896Z,8.33
2019-02-16T00:32:26.889Z,8.26
2019-02-16T00:33:26.883Z,8.36
2019-02-16T00:34:26.884Z,8.26
2019-02-16T00:35:26.889Z,8.30
2019-02-16T00:36:26.838Z,8.36
2019-02-16T00:37:26.831Z,8.37
2019-02-16T00:38:26.820Z,8.36
2019-02-16T00:39:26.807Z,8.36
2019-02-16T00:40:26.846Z,8.38
2019-02-16T00:41:26.792Z,8.41
2019-02-16T00:42:26.781Z,8.34
2019-02-16T00:43:26.770Z,8.31
2019-02-16T00:44:26.756Z,8.27
2019-02-16T00:45:26.778Z,8.27
2019-02-16T00:46:26.738Z,8.30
2019-02-16T00:47:26.734Z,8.27
2019-02-16T00:48:26.711Z,8.30
2019-02-16T00:49:26.731Z,8.30
2019-02-16T00:50:26.714Z,8.24
2019-02-16T00:51:26.681Z,8.27
2019-02-16T00:52:26.673Z,8.26
2019-02-16T00:53:26.664Z,8.28
2019-02-16T00:54:26.653Z,8.31
2019-02-16T00:55:26.664Z,8.24
2019-02-16T00:56:26.632Z,8.26
2019-02-16T00:57:26.618Z,8.28
2019-02-16T00:58:26.604Z,8.24
2019-02-16T00:59:28.035Z,8.27
2019-02-16T01:00:26.616Z,8.27
2019-02-16T01:01:26.577Z,8.23
2019-02-16T01:02:26.569Z,8.28
2019-02-16T01:03:26.551Z,8.28
2019-02-16T01:04:26.544Z,8.19
2019-02-16T01:05:26.560Z,8.16
2019-02-16T01:06:26.523Z,8.16
2019-02-16T01:07:26.549Z,8.19
2019-02-16T01:08:26.498Z,8.13
2019-02-16T01:09:26.491Z,8.10
2019-02-16T01:10:26.969Z,8.20
2019-02-16T01:11:28.128Z,8.10
2019-02-16T01:12:26.900Z,8.09
2019-02-16T01:13:27.645Z,8.20
2019-02-16T01:14:26.742Z,8.13
2019-02-16T01:15:26.513Z,8.15
2019-02-16T01:16:27.247Z,8.15
2019-02-16T01:17:27.507Z,8.09
2019-02-16T01:18:26.403Z,8.13
2019-02-16T01:19:27.256Z,8.01
2019-02-16T01:20:26.621Z,8.10
2019-02-16T01:21:26.652Z,8.00
2019-02-16T01:22:26.526Z,7.97
2019-02-16T01:23:26.556Z,8.03
2019-02-16T01:24:26.479Z,8.03
2019-02-16T01:25:26.390Z,7.98
2019-02-16T01:26:26.558Z,8.00
2019-02-16T01:27:26.739Z,7.95
2019-02-16T01:28:26.497Z,7.95
2019-02-16T01:29:26.409Z,7.85
2019-02-16T01:30:26.379Z,7.87
2019-02-16T01:31:26.307Z,7.94
2019-02-16T01:32:26.611Z,7.91
2019-02-16T01:33:26.649Z,7.87
2019-02-16T01:34:26.319Z,7.82
2019-02-16T01:35:26.234Z,7.72
2019-02-16T01:36:26.240Z,7.72
2019-02-16T01:37:26.245Z,7.73
2019-02-16T01:38:26.368Z,7.67
2019-02-16T01:39:26.224Z,7.82
2019-02-16T01:40:26.197Z,7.79
2019-02-16T01:41:26.158Z,7.73
2019-02-16T01:42:26.225Z,7.79
2019-02-16T01:43:26.230Z,7.72
2019-02-16T01:44:26.322Z,7.58
2019-02-16T01:45:26.263Z,7.70
2019-02-16T01:46:26.139Z,7.58
2019-02-16T01:47:26.096Z,7.63
2019-02-16T01:48:26.108Z,7.54
2019-02-16T01:49:26.455Z,7.51
2019-02-16T01:50:26.151Z,7.61
2019-02-16T01:51:31.864Z,7.53
2019-02-16T01:52:27.108Z,7.54
2019-02-16T01:53:26.090Z,7.51
2019-02-16T01:54:26.084Z,7.57
2019-02-16T01:55:26.896Z,7.57
2019-02-16T01:56:26.138Z,7.50
2019-02-16T01:57:26.041Z,7.58
2019-02-16T01:58:26.047Z,7.54
2019-02-16T01:59:26.015Z,7.56
2019-02-16T02:00:26.067Z,7.45
2019-02-16T02:01:25.999Z,7.53
2019-02-16T02:02:25.932Z,7.56
2019-02-16T02:03:26.095Z,7.50
2019-02-16T02:04:25.977Z,7.51
2019-02-16T02:05:25.944Z,7.45
2019-02-16T02:06:25.924Z,7.43
2019-02-16T02:07:25.886Z,7.38
2019-02-16T02:08:25.874Z,7.38
2019-02-16T02:09:25.868Z,7.40
2019-02-16T02:10:25.874Z,7.40
2019-02-16T02:11:25.887Z,7.38
2019-02-16T02:12:25.857Z,7.45
2019-02-16T02:13:25.818Z,7.53
2019-02-16T02:14:25.805Z,7.45
2019-02-16T02:15:25.786Z,7.45
2019-02-16T02:16:25.781Z,7.40
2019-02-16T02:17:25.804Z,7.35
2019-02-16T02:18:25.759Z,7.33
2019-02-16T02:19:25.772Z,7.32
2019-02-16T02:20:25.762Z,7.32
2019-02-16T02:21:25.720Z,7.32
2019-02-16T02:22:25.719Z,7.29
2019-02-16T02:23:25.704Z,7.33
2019-02-16T02:24:25.719Z,7.38
2019-02-16T02:25:25.677Z,7.42
2019-02-16T02:26:25.671Z,7.39
2019-02-16T02:27:25.657Z,7.32
2019-02-16T02:28:25.654Z,7.40
2019-02-16T02:29:25.845Z,7.28
2019-02-16T02:30:25.816Z,7.24
2019-02-16T02:31:25.628Z,7.24
2019-02-16T02:32:25.605Z,7.24
2019-02-16T02:33:25.589Z,7.25
2019-02-16T02:34:25.589Z,7.21
2019-02-16T02:35:25.615Z,7.21
2019-02-16T02:36:25.567Z,7.21
2019-02-16T02:37:25.552Z,7.15
2019-02-16T02:38:25.535Z,7.07
2019-02-16T02:39:25.533Z,7.06
2019-02-16T02:40:25.527Z,7.03
2019-02-16T02:41:25.532Z,6.99
2019-02-16T02:42:25.497Z,7.00
2019-02-16T02:43:25.488Z,7.05
2019-02-16T02:44:25.474Z,6.99
2019-02-16T02:45:25.481Z,7.03
2019-02-16T02:46:25.480Z,7.07
2019-02-16T02:47:25.439Z,7.05
2019-02-16T02:48:25.434Z,7.00
2019-02-16T02:49:25.489Z,7.03
2019-02-16T02:50:25.414Z,7.17
2019-02-16T02:51:25.430Z,7.06
2019-02-16T02:52:25.392Z,7.13
2019-02-16T02:53:31.008Z,7.18
2019-02-16T02:54:26.395Z,7.13
2019-02-16T02:55:25.364Z,7.11
2019-02-16T02:56:25.387Z,7.05
2019-02-16T02:57:25.330Z,7.02
2019-02-16T02:58:25.331Z,7.03
2019-02-16T02:59:25.330Z,6.96
2019-02-16T03:00:25.302Z,6.89
2019-02-16T03:01:25.323Z,7.00
2019-02-16T03:02:25.286Z,6.97
2019-02-16T03:03:25.277Z,7.06
2019-02-16T03:04:25.258Z,6.93
2019-02-16T03:05:25.313Z,6.85
2019-02-16T03:06:25.282Z,6.84
2019-02-16T03:07:25.231Z,6.81
2019-02-16T03:08:25.312Z,6.87
2019-02-16T03:09:25.212Z,6.78
2019-02-16T03:10:25.205Z,6.81
2019-02-16T03:11:25.183Z,6.75
2019-02-16T03:12:25.198Z,6.77
2019-02-16T03:13:25.166Z,6.81
2019-02-16T03:14:25.156Z,6.77
2019-02-16T03:15:25.145Z,6.75
2019-02-16T03:16:26.220Z,6.64
2019-02-16T03:17:25.158Z,6.67
2019-02-16T03:18:25.118Z,6.82
2019-02-16T03:19:25.097Z,6.74
2019-02-16T03:20:25.094Z,6.69
2019-02-16T03:21:25.085Z,6.62
2019-02-16T03:22:25.073Z,6.62
2019-02-16T03:23:25.096Z,6.60
2019-02-16T03:24:25.063Z,6.48
2019-02-16T03:25:25.040Z,6.57
2019-02-16T03:26:25.031Z,6.64
2019-02-16T03:27:25.026Z,6.62
2019-02-16T03:28:25.035Z,6.66
2019-02-16T03:29:24.992Z,6.60
2019-02-16T03:30:24.992Z,6.64
2019-02-16T03:31:24.986Z,6.63
2019-02-16T03:32:25.021Z,6.67
2019-02-16T03:33:24.963Z,6.63
2019-02-16T03:34:25.003Z,6.62
2019-02-16T03:35:24.941Z,6.60
2019-02-16T03:36:24.922Z,6.54
2019-02-16T03:37:24.910Z,6.51
2019-02-16T03:38:24.898Z,6.54
2019-02-16T03:39:24.893Z,6.56
2019-02-16T03:40:24.911Z,6.52
2019-02-16T03:41:24.888Z,6.52
2019-02-16T03:42:24.854Z,6.57
2019-02-16T03:43:24.846Z,6.57
2019-02-16T03:44:24.840Z,6.64
2019-02-16T03:45:24.875Z,6.57
2019-02-16T03:46:24.821Z,6.54
2019-02-16T03:47:24.809Z,6.54
2019-02-16T03:48:24.793Z,6.52
2019-02-16T03:49:24.784Z,6.52
2019-02-16T03:50:24.797Z,6.35
2019-02-16T03:51:24.803Z,6.35
2019-02-16T03:52:24.761Z,6.20
2019-02-16T03:53:24.750Z,6.17
2019-02-16T03:54:24.736Z,6.12
2019-02-16T03:55:24.725Z,6.04
2019-02-16T03:56:24.746Z,5.98
2019-02-16T03:57:24.722Z,6.05
2019-02-16T03:58:24.707Z,6.05
2019-02-16T03:59:24.686Z,6.12
2019-02-16T04:00:24.671Z,6.22
2019-02-16T04:01:24.656Z,6.17
2019-02-16T04:02:24.675Z,6.30
2019-02-16T04:03:24.634Z,6.28
2019-02-16T04:04:24.635Z,6.28
2019-02-16T04:05:24.621Z,6.33
2019-02-16T04:06:24.614Z,6.36
2019-02-16T04:07:24.632Z,6.30
2019-02-16T04:08:24.584Z,6.33
2019-02-16T04:09:24.574Z,6.28
2019-02-16T04:10:24.568Z,6.20
2019-02-16T04:11:24.555Z,6.12
2019-02-16T04:12:24.548Z,6.20
2019-02-16T04:13:24.567Z,6.28
2019-02-16T04:14:24.518Z,6.17
2019-02-16T04:15:24.509Z,6.16
2019-02-16T04:16:24.507Z,6.09
2019-02-16T04:17:24.506Z,6.16
2019-02-16T04:18:24.483Z,6.16
2019-02-16T04:19:24.464Z,6.19
2019-02-16T04:20:24.452Z,6.12
2019-02-16T04:21:24.460Z,6.16
2019-02-16T04:22:25.069Z,6.02
2019-02-16T04:23:24.426Z,6.07
2019-02-16T04:24:24.422Z,6.05
2019-02-16T04:25:24.402Z,6.19
2019-02-16T04:26:24.400Z,6.14
2019-02-16T04:27:24.389Z,6.12
2019-02-16T04:28:24.388Z,6.17
2019-02-16T04:29:24.352Z,6.11
2019-02-16T04:30:24.381Z,6.09
2019-02-16T04:31:24.339Z,6.14
2019-02-16T04:32:24.320Z,6.22
2019-02-16T04:33:24.315Z,6.24
2019-02-16T04:34:24.302Z,6.27
2019-02-16T04:35:24.320Z,6.28
2019-02-16T04:36:24.285Z,6.20
2019-02-16T04:37:24.273Z,6.20
2019-02-16T04:38:24.260Z,6.22
2019-02-16T04:39:24.246Z,6.19
2019-02-16T04:40:24.285Z,6.26
2019-02-16T04:41:24.237Z,6.12
2019-02-16T04:42:24.221Z,6.11
2019-02-16T04:43:24.212Z,6.12
2019-02-16T04:44:24.198Z,5.99
2019-02-16T04:45:24.188Z,6.07
2019-02-16T04:46:24.219Z,5.99
2019-02-16T04:47:24.174Z,5.98
2019-02-16T04:48:24.158Z,6.01
2019-02-16T04:49:24.146Z,5.91
2019-02-16T04:50:24.159Z,5.97
2019-02-16T04:51:24.123Z,5.89
2019-02-16T04:52:33.979Z,5.93
2019-02-16T04:53:25.104Z,5.94
2019-02-16T04:54:24.111Z,5.98
2019-02-16T04:55:24.115Z,5.94
2019-02-16T04:56:24.070Z,5.91
2019-02-16T04:57:24.065Z,5.91
2019-02-16T04:58:24.048Z,5.90
2019-02-16T04:59:24.040Z,5.89
2019-02-16T05:00:24.081Z,5.83
2019-02-16T05:01:24.022Z,5.75
2019-02-16T05:02:24.006Z,5.75
2019-02-16T05:03:24.000Z,5.75
2019-02-16T05:04:23.996Z,5.73
2019-02-16T05:05:24.003Z,5.76
2019-02-16T05:06:24.004Z,5.73
2019-02-16T05:07:23.961Z,5.84
2019-02-16T05:08:23.941Z,5.82
2019-02-16T05:09:23.941Z,5.87
2019-02-16T05:10:23.923Z,5.89
2019-02-16T05:11:23.917Z,5.87
2019-02-16T05:12:23.927Z,5.89
2019-02-16T05:13:23.922Z,5.80
2019-02-16T05:14:23.887Z,5.84
2019-02-16T05:15:23.881Z,5.82
2019-02-16T05:16:23.860Z,5.91
2019-02-16T05:17:23.884Z,5.84
2019-02-16T05:18:23.843Z,5.86
2019-02-16T05:19:23.834Z,5.86
2019-02-16T05:20:23.825Z,5.91
2019-02-16T05:21:23.813Z,5.90
2019-02-16T05:22:23.835Z,5.97
2019-02-16T05:23:23.811Z,5.98
2019-02-16T05:24:23.785Z,5.89
2019-02-16T05:25:23.771Z,5.90
2019-02-16T05:26:23.757Z,5.91
2019-02-16T05:27:23.781Z,6.01
2019-02-16T05:28:23.771Z,6.05
2019-02-16T05:29:23.726Z,5.91
2019-02-16T05:30:23.714Z,5.94
2019-02-16T05:31:23.711Z,6.01
2019-02-16T05:32:23.700Z,5.91
2019-02-16T05:33:23.753Z,6.04
2019-02-16T05:34:23.674Z,6.08
2019-02-16T05:35:23.753Z,6.04
2019-02-16T05:36:23.695Z,6.02
2019-02-16T05:37:23.831Z,6.05
2019-02-16T05:38:23.672Z,6.12
2019-02-16T05:39:23.765Z,6.08
2019-02-16T05:40:23.663Z,6.20
2019-02-16T05:41:23.651Z,6.16
2019-02-16T05:42:23.638Z,6.14
2019-02-16T05:43:23.812Z,6.12
2019-02-16T05:44:23.645Z,6.11
2019-02-16T05:45:23.563Z,6.16
2019-02-16T05:46:24.712Z,6.12
2019-02-16T05:47:23.539Z,6.09
2019-02-16T05:48:23.523Z,6.11
2019-02-16T05:49:23.515Z,5.99
2019-02-16T05:50:23.536Z,5.91
2019-02-16T05:51:23.497Z,5.91
2019-02-16T05:52:23.483Z,5.91
2019-02-16T05:53:23.477Z,5.89
2019-02-16T05:54:23.458Z,5.84
2019-02-16T05:55:23.494Z,5.76
2019-02-16T05:56:23.444Z,5.72
2019-02-16T05:57:23.434Z,5.72
2019-02-16T05:58:23.427Z,5.65
2019-02-16T05:59:23.416Z,5.68
2019-02-16T06:00:23.398Z,5.72
2019-02-16T06:01:23.419Z,5.68
2019-02-16T06:02:23.378Z,5.68
2019-02-16T06:03:23.397Z,5.65
2019-02-16T06:04:23.367Z,5.65
2019-02-16T06:05:23.373Z,5.66
2019-02-16T06:06:23.358Z,5.66
2019-02-16T06:07:23.322Z,5.65
2019-02-16T06:08:23.319Z,5.66
2019-02-16T06:09:23.311Z,5.66
2019-02-16T06:10:23.293Z,5.73
2019-02-16T06:11:23.319Z,5.76
2019-02-16T06:12:23.291Z,5.84
2019-02-16T06:13:23.264Z,5.89
2019-02-16T06:14:23.251Z,5.87
2019-02-16T06:15:23.245Z,5.86
2019-02-16T06:16:23.231Z,5.87
2019-02-16T06:17:23.263Z,5.86
2019-02-16T06:18:23.211Z,5.82
2019-02-16T06:19:23.209Z,5.83
2019-02-16T06:20:23.183Z,5.90
2019-02-16T06:21:23.178Z,5.93
2019-02-16T06:22:23.169Z,5.97
2019-02-16T06:23:23.185Z,5.99
2019-02-16T06:24:23.142Z,5.87
2019-02-16T06:25:23.138Z,5.97
2019-02-16T06:26:23.182Z,5.91
2019-02-16T06:27:23.112Z,5.90
2019-02-16T06:28:23.153Z,5.91
2019-02-16T06:29:23.105Z,5.93
2019-02-16T06:30:23.085Z,6.01
2019-02-16T06:31:23.081Z,6.05
2019-02-16T06:32:23.059Z,6.04
2019-02-16T06:33:23.050Z,6.07
2019-02-16T06:34:23.070Z,6.07
2019-02-16T06:35:23.024Z,6.08
2019-02-16T06:36:23.023Z,6.07
2019-02-16T06:37:23.018Z,6.11
2019-02-16T06:38:22.999Z,6.09
2019-02-16T06:39:23.014Z,6.05
2019-02-16T06:40:22.984Z,6.12
2019-02-16T06:41:22.972Z,6.11
2019-02-16T06:42:22.961Z,6.04
2019-02-16T06:43:23.002Z,6.04
2019-02-16T06:44:22.956Z,6.01
2019-02-16T06:45:22.922Z,6.01
2019-02-16T06:46:22.913Z,5.97
2019-02-16T06:47:22.899Z,5.98
2019-02-16T06:48:22.899Z,5.94
2019-02-16T06:49:22.917Z,5.91
2019-02-16T06:50:22.903Z,5.89
2019-02-16T06:51:22.873Z,5.94
2019-02-16T06:52:22.854Z,5.91
2019-02-16T06:53:22.842Z,5.93
2019-02-16T06:54:22.879Z,6.08
2019-02-16T06:55:22.827Z,6.11
2019-02-16T06:56:22.810Z,6.02
2019-02-16T06:57:22.796Z,6.04
2019-02-16T06:58:22.787Z,6.07
2019-02-16T06:59:22.777Z,6.04
2019-02-16T07:00:22.799Z,5.97
2019-02-16T07:01:22.762Z,6.04
2019-02-16T07:02:22.751Z,5.99
2019-02-16T07:03:22.739Z,5.99
2019-02-16T07:04:22.721Z,5.99
2019-02-16T07:05:22.737Z,6.04
2019-02-16T07:06:22.704Z,6.14
2019-02-16T07:07:22.695Z,6.14
2019-02-16T07:08:22.690Z,6.14
2019-02-16T07:09:22.677Z,6.12
2019-02-16T07:10:22.705Z,6.14
2019-02-16T07:11:22.649Z,6.11
2019-02-16T07:12:22.647Z,6.12
2019-02-16T07:13:22.638Z,6.09
2019-02-16T07:14:22.624Z,6.09
2019-02-16T07:15:22.613Z,6.20
2019-02-16T07:16:22.636Z,6.19
2019-02-16T07:17:22.590Z,6.20
2019-02-16T07:18:22.582Z,6.24
2019-02-16T07:19:22.566Z,6.30
2019-02-16T07:20:22.563Z,6.24
2019-02-16T07:21:22.559Z,6.33
2019-02-16T07:22:22.574Z,6.36
2019-02-16T07:23:22.923Z,6.48
2019-02-16T07:24:22.512Z,6.41
2019-02-16T07:25:22.516Z,6.35
2019-02-16T07:26:22.499Z,6.46
2019-02-16T07:27:22.513Z,6.51
2019-02-16T07:28:22.470Z,6.52
2019-02-16T07:29:22.462Z,6.56
2019-02-16T07:30:22.449Z,6.46
2019-02-16T07:31:22.439Z,6.51
2019-02-16T07:32:22.456Z,6.57
2019-02-16T07:33:22.427Z,6.60
2019-02-16T07:34:22.417Z,6.59
2019-02-16T07:35:22.404Z,6.54
2019-02-16T07:36:22.395Z,6.56
2019-02-16T07:37:22.409Z,6.66
2019-02-16T07:38:22.367Z,6.63
2019-02-16T07:39:22.368Z,6.63
2019-02-16T07:40:22.351Z,6.62
2019-02-16T07:41:22.367Z,6.64
2019-02-16T07:42:22.346Z,6.77
2019-02-16T07:43:22.355Z,6.67
2019-02-16T07:44:22.319Z,6.69
2019-02-16T07:45:22.304Z,6.81
2019-02-16T07:46:22.287Z,6.77
2019-02-16T07:47:22.320Z,6.85
2019-02-16T07:48:22.271Z,6.84
2019-02-16T07:49:23.239Z,6.84
2019-02-16T07:50:22.240Z,6.89
2019-02-16T07:51:22.269Z,6.93
2019-02-16T07:52:22.227Z,6.93
2019-02-16T07:53:30.959Z,6.93
2019-02-16T07:54:23.249Z,6.99
2019-02-16T07:55:22.254Z,7.07
2019-02-16T07:56:22.212Z,7.13
2019-02-16T07:57:22.170Z,7.03
2019-02-16T07:58:22.192Z,7.21
2019-02-16T07:59:22.151Z,7.20
2019-02-16T08:00:22.132Z,7.33
2019-02-16T08:01:22.123Z,7.36
2019-02-16T08:02:22.113Z,7.45
2019-02-16T08:03:22.103Z,7.40
2019-02-16T08:04:22.129Z,7.39
2019-02-16T08:05:22.087Z,7.33
2019-02-16T08:06:22.076Z,7.31
2019-02-16T08:07:22.065Z,7.40
2019-02-16T08:08:22.048Z,7.40
2019-02-16T08:09:22.037Z,7.50
2019-02-16T08:10:22.060Z,7.58
2019-02-16T08:11:22.016Z,7.53
2019-02-16T08:12:22.010Z,7.54
2019-02-16T08:13:22.000Z,7.69
2019-02-16T08:14:21.983Z,7.72
2019-02-16T08:15:21.972Z,7.80
2019-02-16T08:16:21.991Z,7.82
2019-02-16T08:17:21.958Z,8.00
2019-02-16T08:18:21.949Z,7.98
2019-02-16T08:19:23.105Z,8.13
2019-02-16T08:20:21.920Z,8.13
2019-02-16T08:21:21.940Z,8.06
2019-02-16T08:22:21.902Z,8.06
2019-02-16T08:23:21.891Z,8.05
2019-02-16T08:24:21.885Z,8.05
2019-02-16T08:25:21.871Z,8.15
2019-02-16T08:26:21.861Z,8.16
2019-02-16T08:27:21.882Z,8.18
2019-02-16T08:28:21.836Z,8.26
2019-02-16T08:29:21.826Z,8.27
2019-02-16T08:30:21.820Z,8.38
2019-02-16T08:31:21.806Z,8.48
2019-02-16T08:32:21.820Z,8.52
2019-02-16T08:33:21.784Z,8.51
2019-02-16T08:34:21.769Z,8.66
2019-02-16T08:35:21.768Z,8.82
2019-02-16T08:36:21.755Z,8.84
2019-02-16T08:37:21.765Z,8.97
2019-02-16T08:38:21.745Z,8.84
2019-02-16T08:39:21.720Z,8.97
2019-02-16T08:40:21.706Z,8.97
2019-02-16T08:41:21.695Z,8.94
2019-02-16T08:42:21.709Z,8.94
2019-02-16T08:43:21.685Z,9.08
2019-02-16T08:44:21.674Z,9.19
2019-02-16T08:45:21.663Z,9.41
2019-02-16T08:46:21.663Z,9.82
2019-02-16T08:47:21.653Z,10.59
2019-02-16T08:48:21.629Z,12.00
2019-02-16T08:49:21.629Z,14.03
2019-02-16T08:50:21.605Z,15.68
2019-02-16T08:51:21.621Z,16.99
2019-02-16T08:52:21.580Z,18.29
2019-02-16T08:53:32.381Z,18.98
2019-02-16T08:58:29.317Z,20.84
2019-02-16T08:59:29.323Z,21.62
2019-02-16T09:00:29.332Z,21.46
2019-02-16T09:01:29.265Z,20.77
2019-02-16T09:02:29.262Z,21.50
2019-02-16T09:03:29.250Z,21.64
2019-02-16T09:04:29.254Z,22.48
2019-02-16T09:05:29.223Z,22.88
2019-02-16T09:06:29.216Z,23.48
2019-02-16T09:07:29.281Z,23.28
2019-02-16T09:08:29.261Z,23.24
2019-02-16T09:09:29.191Z,23.96
2019-02-16T09:10:29.167Z,24.55
2019-02-16T09:11:29.156Z,25.07
2019-02-16T09:12:29.149Z,25.16
2019-02-16T09:13:29.154Z,25.07
2019-02-16T09:14:29.156Z,25.55
2019-02-16T09:15:29.120Z,26.37
2019-02-16T09:16:29.109Z,26.90
2019-02-16T09:17:29.099Z,27.60
2019-02-16T09:18:29.079Z,27.89
2019-02-16T09:19:29.102Z,27.77
2019-02-16T09:20:29.065Z,26.40
2019-02-16T09:21:29.074Z,25.46
2019-02-16T09:22:29.041Z,25.81
2019-02-16T09:23:29.196Z,26.70
2019-02-16T09:24:29.129Z,27.14
2019-02-16T09:25:29.035Z,27.36
2019-02-16T09:26:29.025Z,25.75
2019-02-16T09:27:28.997Z,25.07
2019-02-16T09:28:29.809Z,24.63
2019-02-16T09:29:29.006Z,24.30
2019-02-16T09:30:29.031Z,23.39
2019-02-16T09:31:28.947Z,22.66
2019-02-16T09:32:28.938Z,22.35
2019-02-16T09:33:28.931Z,21.39
2019-02-16T09:34:28.928Z,20.67
2019-02-16T09:35:28.942Z,20.13
2019-02-16T09:36:28.893Z,20.25
2019-02-16T09:37:29.032Z,20.36
2019-02-16T09:38:28.904Z,20.41
2019-02-16T09:39:28.893Z,20.36
2019-02-16T09:40:28.879Z,19.96
2019-02-16T09:41:28.849Z,19.55
2019-02-16T09:42:28.829Z,18.83
2019-02-16T09:43:28.819Z,18.38
2019-02-16T09:44:28.810Z,18.56
2019-02-16T09:45:28.823Z,18.38
2019-02-16T09:46:28.797Z,18.20
2019-02-16T09:47:28.782Z,18.22
2019-02-16T09:48:28.769Z,17.65
2019-02-16T09:49:28.762Z,16.96
2019-02-16T09:50:28.777Z,16.21
2019-02-16T09:51:28.745Z,15.92
2019-02-16T09:52:28.730Z,16.47
2019-02-16T09:53:28.720Z,16.94
2019-02-16T09:54:28.697Z,17.38
2019-02-16T09:55:28.689Z,18.33
2019-02-16T09:56:28.711Z,19.04
2019-02-16T09:57:28.673Z,20.02
2019-02-16T09:58:28.664Z,20.50
2019-02-16T09:59:28.662Z,20.99
2019-02-16T10:00:28.644Z,21.50
2019-02-16T10:01:28.638Z,22.22
2019-02-16T10:02:28.641Z,22.87
2019-02-16T10:03:28.610Z,23.95
2019-02-16T10:04:28.590Z,25.07
2019-02-16T10:05:28.603Z,25.87
2019-02-16T10:06:28.579Z,26.66
2019-02-16T10:07:30.440Z,27.03
2019-02-16T10:08:28.552Z,26.33
2019-02-16T10:09:28.541Z,26.09
2019-02-16T10:10:28.545Z,25.41
2019-02-16T10:11:28.521Z,24.38
2019-02-16T10:12:28.532Z,24.02
2019-02-16T10:13:28.504Z,23.80
2019-02-16T10:14:28.484Z,23.40
2019-02-16T10:15:28.482Z,23.12
2019-02-16T10:16:28.490Z,22.62
2019-02-16T10:17:28.455Z,22.33
2019-02-16T10:18:28.553Z,22.06
2019-02-16T10:19:28.447Z,21.39
2019-02-16T10:20:28.433Z,21.06
2019-02-16T10:21:28.419Z,20.72
2019-02-16T10:22:28.402Z,20.50
2019-02-16T10:23:28.426Z,20.19
2019-02-16T10:24:28.393Z,19.96
2019-02-16T10:25:28.381Z,19.51
2019-02-16T10:26:28.359Z,18.78
2019-02-16T10:27:28.348Z,18.62
2019-02-16T10:28:28.339Z,18.16
2019-02-16T10:29:28.353Z,17.60
2019-02-16T10:30:28.324Z,17.20
2019-02-16T10:31:28.311Z,16.91
2019-02-16T10:32:28.302Z,17.04
2019-02-16T10:33:28.291Z,17.01
2019-02-16T10:34:28.297Z,17.04
2019-02-16T10:35:28.265Z,17.05
2019-02-16T10:36:29.381Z,17.06
2019-02-16T10:37:28.242Z,17.05
2019-02-16T10:38:28.243Z,16.99
2019-02-16T10:39:28.226Z,16.93
2019-02-16T10:40:28.243Z,16.90
2019-02-16T10:41:28.199Z,16.96
2019-02-16T10:42:28.194Z,16.97
2019-02-16T10:43:28.188Z,16.97
2019-02-16T10:44:28.174Z,17.01
2019-02-16T10:45:28.159Z,17.02
2019-02-16T10:46:28.178Z,17.02
2019-02-16T10:47:28.134Z,17.15
2019-02-16T10:48:28.122Z,17.15
2019-02-16T10:49:28.111Z,17.45
2019-02-16T10:50:28.105Z,17.54
2019-02-16T10:51:28.095Z,17.48
2019-02-16T10:52:28.118Z,17.64
2019-02-16T10:53:28.071Z,17.41
2019-02-16T10:54:29.673Z,17.12
2019-02-16T10:55:28.046Z,16.99
2019-02-16T10:56:28.039Z,17.02
2019-02-16T10:57:28.028Z,17.01
2019-02-16T10:58:28.035Z,17.16
2019-02-16T10:59:28.001Z,17.08
2019-02-16T11:00:27.996Z,17.02
2019-02-16T11:01:27.980Z,16.96
2019-02-16T11:02:27.973Z,16.76
2019-02-16T11:03:27.985Z,16.75
2019-02-16T11:04:27.953Z,16.32
2019-02-16T11:05:27.943Z,16.05
2019-02-16T11:06:27.925Z,15.97
2019-02-16T11:07:27.915Z,16.15
2019-02-16T11:08:27.938Z,16.33
2019-02-16T11:09:27.891Z,16.43
2019-02-16T11:10:27.885Z,16.32
2019-02-16T11:11:27.875Z,16.36
2019-02-16T11:12:27.865Z,16.51
2019-02-16T11:13:27.846Z,16.47
2019-02-16T11:14:27.867Z,16.42
2019-02-16T11:15:27.833Z,16.46
2019-02-16T11:16:27.820Z,16.56
2019-02-16T11:17:27.810Z,16.54
2019-02-16T11:18:27.796Z,16.43
2019-02-16T11:19:27.814Z,16.51
2019-02-16T11:20:27.775Z,16.49
2019-02-16T11:21:27.764Z,16.41
2019-02-16T11:22:27.758Z,16.39
2019-02-16T11:23:27.749Z,16.42
2019-02-16T11:24:35.837Z,16.36
2019-02-16T11:25:28.746Z,16.29
2019-02-16T11:26:27.707Z,16.21
2019-02-16T11:27:27.700Z,16.15
2019-02-16T11:28:27.691Z,16.15
2019-02-16T11:29:27.684Z,16.32
2019-02-16T11:30:27.687Z,16.28
2019-02-16T11:31:27.653Z,16.41
2019-02-16T11:32:27.644Z,16.36
2019-02-16T11:33:27.635Z,16.41
2019-02-16T11:34:27.661Z,16.49
2019-02-16T11:35:27.615Z,16.54
2019-02-16T11:36:27.603Z,16.74
2019-02-16T11:37:27.591Z,16.64
2019-02-16T11:38:27.578Z,16.68
2019-02-16T11:39:27.568Z,16.72
2019-02-16T11:40:27.582Z,16.21
2019-02-16T11:41:27.544Z,16.36
2019-02-16T11:42:27.539Z,16.46
2019-02-16T11:43:27.527Z,16.49
2019-02-16T11:44:27.513Z,16.71
2019-02-16T11:45:27.507Z,16.71
2019-02-16T11:46:27.519Z,16.81
2019-02-16T11:47:27.485Z,16.84
2019-02-16T11:48:27.476Z,16.83
2019-02-16T11:49:27.462Z,16.96
2019-02-16T11:50:27.483Z,16.96
2019-02-16T11:51:27.436Z,16.96
2019-02-16T11:52:27.425Z,16.87
2019-02-16T11:53:27.415Z,17.05
2019-02-16T11:54:27.409Z,16.96
2019-02-16T11:55:27.400Z,16.84
2019-02-16T11:56:27.412Z,16.97
2019-02-16T11:57:27.379Z,16.97
2019-02-16T11:58:27.361Z,16.87
2019-02-16T11:59:27.350Z,16.76
2019-02-16T12:00:27.343Z,16.87
2019-02-16T12:01:27.400Z,16.83
2019-02-16T12:02:27.317Z,16.60
2019-02-16T12:03:27.305Z,16.76
2019-02-16T12:04:27.295Z,16.74
2019-02-16T12:05:27.283Z,16.79
2019-02-16T12:06:27.305Z,16.90
2019-02-16T12:07:27.266Z,16.96
2019-02-16T12:08:27.262Z,16.81
2019-02-16T12:09:27.303Z,16.83
2019-02-16T12:10:27.226Z,16.81
2019-02-16T12:11:27.247Z,16.83
2019-02-16T12:12:27.207Z,16.91
2019-02-16T12:13:27.196Z,16.89
2019-02-16T12:14:27.191Z,16.99
2019-02-16T12:15:27.183Z,16.99
2019-02-16T12:16:27.165Z,17.09
2019-02-16T12:17:27.174Z,17.09
2019-02-16T12:18:27.148Z,16.99
2019-02-16T12:19:27.142Z,17.05
2019-02-16T12:20:33.349Z,17.04
2019-02-16T12:21:28.113Z,17.09
2019-02-16T12:22:27.135Z,17.15
2019-02-16T12:23:27.087Z,17.15
2019-02-16T12:24:27.077Z,17.11
2019-02-16T12:25:27.064Z,17.12
2019-02-16T12:26:27.063Z,17.12
2019-02-16T12:27:27.066Z,17.16
2019-02-16T12:28:27.064Z,17.26
2019-02-16T12:29:27.027Z,17.19
2019-02-16T12:30:27.010Z,17.19
2019-02-16T12:31:27.000Z,17.29
2019-02-16T12:32:26.996Z,17.14
2019-02-16T12:33:27.015Z,17.22
2019-02-16T12:34:26.966Z,17.27
2019-02-16T12:35:26.964Z,17.19
2019-02-16T12:36:26.948Z,17.11
2019-02-16T12:37:26.935Z,17.26
2019-02-16T12:38:26.932Z,17.15
2019-02-16T12:39:26.950Z,17.20
2019-02-16T12:40:26.910Z,17.26
2019-02-16T12:41:26.904Z,17.24
2019-02-16T12:42:26.881Z,17.19
2019-02-16T12:43:26.869Z,17.12
2019-02-16T12:44:26.859Z,17.24
2019-02-16T12:45:26.874Z,17.20
2019-02-16T12:46:26.842Z,17.15
2019-02-16T12:47:26.831Z,17.19
2019-02-16T12:48:26.815Z,17.30
2019-02-16T12:49:26.835Z,17.38
2019-02-16T12:50:26.802Z,17.42
2019-02-16T12:51:26.797Z,17.39
2019-02-16T12:52:26.780Z,17.42
2019-02-16T12:53:26.766Z,17.42
2019-02-16T12:54:26.750Z,17.54
2019-02-16T12:55:26.776Z,17.52
2019-02-16T12:56:26.734Z,17.45
2019-02-16T12:57:26.721Z,17.49
2019-02-16T12:58:26.710Z,17.49
2019-02-16T12:59:26.724Z,17.52
2019-02-16T13:00:26.695Z,17.60
2019-02-16T13:01:27.116Z,17.68
2019-02-16T13:02:26.670Z,17.76
2019-02-16T13:03:26.663Z,17.79
2019-02-16T13:04:26.653Z,17.80
2019-02-16T13:05:26.665Z,17.90
2019-02-16T13:06:26.622Z,17.86
2019-02-16T13:07:26.614Z,17.87
2019-02-16T13:08:26.607Z,17.87
2019-02-16T13:09:26.595Z,17.90
2019-02-16T13:10:26.583Z,17.80
2019-02-16T13:11:26.607Z,17.82
2019-02-16T13:12:26.561Z,17.83
2019-02-16T13:13:26.553Z,17.83